createdAt,value
2018-08-20T00:04:32.127Z,11.96
2018-08-20T00:10:27.083Z,12.38
2018-08-20T00:16:22.115Z,12.47
2018-08-20T00:22:17.100Z,11.83
2018-08-20T00:28:12.085Z,11.49
2018-08-20T00:34:07.098Z,12.12
2018-08-20T00:40:02.160Z,11.56
2018-08-20T00:45:57.168Z,12.88
2018-08-20T00:51:52.126Z,12.21
2018-08-20T00:57:47.120Z,12.14
2018-08-20T01:03:42.128Z,13.06
2018-08-20T01:09:37.134Z,12.42
2018-08-20T01:15:32.177Z,12.32
2018-08-20T01:21:27.139Z,12.65
2018-08-20T01:27:22.141Z,12.73
2018-08-20T01:33:17.200Z,12.28
2018-08-20T01:39:12.137Z,12.11
2018-08-20T01:45:07.196Z,12.88
2018-08-20T01:51:02.182Z,12.68
2018-08-20T01:56:57.158Z,12.1
2018-08-20T02:02:52.146Z,12.05
2018-08-20T02:08:47.161Z,12.59
2018-08-20T02:14:42.167Z,12.33
2018-08-20T02:20:37.192Z,12.23
2018-08-20T02:26:32.175Z,12.6
2018-08-20T02:32:27.171Z,11.99
2018-08-20T02:38:22.194Z,12.86
2018-08-20T02:44:17.190Z,12.52
2018-08-20T02:50:12.194Z,11.67
2018-08-20T02:56:07.205Z,12.18
2018-08-20T03:02:02.235Z,12.3
2018-08-20T03:07:57.196Z,11.43
2018-08-20T03:13:52.229Z,12.45
2018-08-20T03:19:47.247Z,12.59
2018-08-20T03:25:42.218Z,13.25
2018-08-20T03:31:37.231Z,12.1
2018-08-20T03:37:32.223Z,13.02
2018-08-20T03:43:27.236Z,12.69
2018-08-20T03:49:22.233Z,11.67
2018-08-20T03:55:17.264Z,12.74
2018-08-20T04:01:12.231Z,12.12
2018-08-20T04:07:07.231Z,14
2018-08-20T04:13:02.242Z,13.75
2018-08-20T04:18:57.247Z,12.87
2018-08-20T04:24:52.232Z,13.24
2018-08-20T04:30:47.358Z,12.39
2018-08-20T04:36:42.329Z,12.98
2018-08-20T04:42:37.253Z,13.48
2018-08-20T04:48:32.284Z,13.36
2018-08-20T04:54:27.318Z,12.45
2018-08-20T05:00:22.280Z,13.15
2018-08-20T05:06:17.327Z,13.41
2018-08-20T05:12:12.298Z,13.95
2018-08-20T05:18:07.288Z,13.82
2018-08-20T05:24:02.304Z,13.89
2018-08-20T05:29:57.292Z,14.84
2018-08-20T05:35:52.294Z,14.8
2018-08-20T05:41:47.300Z,14.87
2018-08-20T05:47:42.310Z,13.67
2018-08-20T05:53:37.332Z,14.5
2018-08-20T05:59:32.317Z,14.39
2018-08-20T06:05:27.359Z,12.57
2018-08-20T06:11:22.313Z,13.29
2018-08-20T06:17:17.320Z,13.09
2018-08-20T06:23:12.353Z,12.86
2018-08-20T06:29:07.340Z,13.18
2018-08-20T06:35:02.375Z,13.29
2018-08-20T06:40:57.338Z,13.1
2018-08-20T06:46:52.331Z,13.05
2018-08-20T06:52:47.371Z,12.81
2018-08-20T06:58:42.373Z,12.69
2018-08-20T07:04:37.348Z,12.31
2018-08-20T07:10:32.367Z,13.17
2018-08-20T07:16:27.353Z,13.24
2018-08-20T07:22:22.354Z,11.84
2018-08-20T07:28:17.369Z,12.25
2018-08-20T07:34:12.428Z,12.56
2018-08-20T07:40:07.363Z,12.9
2018-08-20T07:46:02.389Z,12.77
2018-08-20T07:51:57.360Z,12.33
2018-08-20T07:57:52.404Z,12.82
2018-08-20T08:03:47.422Z,12.92
2018-08-20T08:09:42.402Z,12.99
2018-08-20T08:15:37.382Z,13.64
2018-08-20T08:21:32.435Z,13
2018-08-20T08:27:27.395Z,12.75
2018-08-20T08:33:22.429Z,12.8
2018-08-20T08:39:17.401Z,11.32
2018-08-20T08:45:12.404Z,11.35
2018-08-20T08:51:07.437Z,11.48
2018-08-20T08:57:02.416Z,11.96
2018-08-20T09:02:57.467Z,10.7
2018-08-20T09:08:52.439Z,11.12
2018-08-20T09:14:47.464Z,11.09
2018-08-20T09:20:42.538Z,10.56
2018-08-20T09:26:37.439Z,11.38
2018-08-20T09:32:32.434Z,11.14
2018-08-20T09:38:27.459Z,10.34
2018-08-20T09:44:22.466Z,9.6
2018-08-20T09:50:17.475Z,10.6
2018-08-20T09:56:12.454Z,10.09
2018-08-20T10:02:07.469Z,10
2018-08-20T10:08:02.482Z,10.26
2018-08-20T10:13:57.478Z,10.03
2018-08-20T10:19:52.510Z,9.95
2018-08-20T10:25:47.501Z,9.78
2018-08-20T10:31:42.516Z,8.97
2018-08-20T10:37:37.580Z,9.23
2018-08-20T10:43:32.577Z,9.17
2018-08-20T10:49:27.515Z,9.08
2018-08-20T10:55:22.492Z,9.21
2018-08-20T11:01:17.502Z,9.68
2018-08-20T11:07:12.540Z,8.31
2018-08-20T11:13:07.511Z,8.22
2018-08-20T11:19:02.510Z,8.45
2018-08-20T11:24:57.518Z,7.45
2018-08-20T11:30:52.491Z,7.67
2018-08-20T11:36:47.528Z,8.14
2018-08-20T11:42:42.626Z,7.52
2018-08-20T11:48:37.508Z,8.33
2018-08-20T11:54:32.530Z,8.67
2018-08-20T12:00:27.560Z,7.07
2018-08-20T12:06:22.531Z,8.23
2018-08-20T12:12:17.585Z,8.09
2018-08-20T12:18:12.535Z,7.19
2018-08-20T12:24:07.530Z,6.34
2018-08-20T12:30:02.559Z,6.16
2018-08-20T12:35:57.550Z,5.27
2018-08-20T12:41:52.585Z,5
2018-08-20T12:47:47.624Z,4.98
2018-08-20T12:53:42.569Z,5.26
2018-08-20T12:59:37.569Z,4.4
2018-08-20T13:05:32.570Z,4.94
2018-08-20T13:11:27.564Z,4.68
2018-08-20T13:17:22.600Z,4.41
2018-08-20T13:23:17.567Z,3.6
2018-08-20T13:29:12.618Z,4.16
2018-08-20T13:35:07.646Z,4.28
2018-08-20T13:41:02.605Z,5.05
2018-08-20T13:46:57.576Z,4.6
2018-08-20T13:52:52.623Z,4.65
2018-08-20T13:58:47.611Z,5.05
2018-08-20T14:04:42.617Z,4.44
2018-08-20T14:10:37.615Z,4.85
2018-08-20T14:16:32.622Z,4.88
2018-08-20T14:22:27.637Z,5.01
2018-08-20T14:28:22.608Z,4.76
2018-08-20T14:34:17.637Z,5.37
2018-08-20T14:40:12.624Z,6
2018-08-20T14:46:07.669Z,5.54
2018-08-20T14:52:02.641Z,5.83
2018-08-20T14:57:57.647Z,6.17
2018-08-20T15:03:52.662Z,6.68
2018-08-20T15:09:47.653Z,6.67
2018-08-20T15:15:42.836Z,7.07
2018-08-20T15:21:37.679Z,6.59
2018-08-20T15:27:32.664Z,6.48
2018-08-20T15:33:27.671Z,6.52
2018-08-20T15:39:22.701Z,7.39
2018-08-20T15:45:17.668Z,7.21
2018-08-20T15:51:12.669Z,8.13
2018-08-20T15:57:07.699Z,7.51
2018-08-20T16:03:02.660Z,8.08
2018-08-20T16:08:57.681Z,8
2018-08-20T16:14:52.737Z,8.23
2018-08-20T16:20:47.691Z,8.99
2018-08-20T16:26:42.836Z,8.47
2018-08-20T16:32:37.726Z,8.11
2018-08-20T16:38:32.697Z,9.42
2018-08-20T16:44:27.738Z,8.65
2018-08-20T16:50:22.722Z,8.02
2018-08-20T16:56:17.731Z,8.21
2018-08-20T17:02:12.715Z,9.35
2018-08-20T17:08:07.729Z,9.57
2018-08-20T17:14:02.731Z,8.54
2018-08-20T17:19:57.771Z,8.68
2018-08-20T17:25:52.728Z,8.8
2018-08-20T17:31:47.793Z,8.88
2018-08-20T17:37:42.749Z,9.55
2018-08-20T17:43:37.730Z,8.84
2018-08-20T17:49:32.748Z,8.56
2018-08-20T17:55:27.767Z,8.99
2018-08-20T18:01:22.896Z,9.63
2018-08-20T18:07:17.775Z,9.45
2018-08-20T18:13:12.776Z,9.64
2018-08-20T18:19:07.751Z,9.48
2018-08-20T18:25:02.772Z,10.88
2018-08-20T18:30:57.817Z,9.79
2018-08-20T18:36:52.829Z,8.53
2018-08-20T18:42:47.770Z,8.23
2018-08-20T18:48:42.846Z,8.62
2018-08-20T18:54:37.824Z,9.09
2018-08-20T19:00:32.812Z,9.61
2018-08-20T19:06:27.832Z,9.18
2018-08-20T19:12:22.799Z,9.97
2018-08-20T19:18:17.804Z,10
2018-08-20T19:24:12.816Z,9.8
2018-08-20T19:30:07.797Z,9.8
2018-08-20T19:36:02.831Z,9.37
2018-08-20T19:41:57.806Z,9.92
2018-08-20T19:47:52.847Z,10.52
2018-08-20T19:53:47.829Z,10.25
2018-08-20T19:59:42.864Z,11.09
2018-08-20T20:05:37.927Z,11.1
2018-08-20T20:11:32.851Z,10.77
2018-08-20T20:17:27.843Z,13.09
2018-08-20T20:23:22.842Z,14.51
2018-08-20T20:29:17.899Z,15.54
2018-08-20T20:35:12.878Z,12.42
2018-08-20T20:41:07.882Z,13.43
2018-08-20T20:47:02.873Z,13.96
2018-08-20T20:52:57.851Z,14.93
2018-08-20T20:58:52.884Z,14.3
2018-08-20T21:04:47.862Z,11.5
2018-08-20T21:10:42.966Z,11.52
2018-08-20T21:16:37.869Z,15.62
2018-08-20T21:22:32.873Z,14.84
2018-08-20T21:28:27.871Z,15.34
2018-08-20T21:34:22.909Z,16.62
2018-08-20T21:40:17.909Z,15.89
2018-08-20T21:46:12.954Z,15.64
2018-08-20T21:52:07.936Z,14.41
2018-08-20T21:58:02.892Z,14.18
2018-08-20T22:03:57.902Z,13.7
2018-08-20T22:09:52.924Z,14.03
2018-08-20T22:15:47.922Z,13.77
2018-08-20T22:21:42.905Z,12.06
2018-08-20T22:27:37.975Z,12.94
2018-08-20T22:33:32.919Z,13.33
2018-08-20T22:39:27.945Z,15.11
2018-08-20T22:45:22.950Z,13.78
2018-08-20T22:51:17.995Z,12.86
2018-08-20T22:57:12.945Z,13.27
2018-08-20T23:03:07.947Z,14.29
2018-08-20T23:09:02.955Z,13.75
2018-08-20T23:14:57.992Z,13.83
2018-08-20T23:20:52.951Z,14.38
2018-08-20T23:26:48.058Z,13.81
2018-08-20T23:32:42.980Z,12.68
2018-08-20T23:38:37.975Z,13.62
2018-08-20T23:44:32.964Z,14.11
2018-08-20T23:50:27.983Z,13.51
2018-08-20T23:56:22.986Z,13.94
